createdAt,value
2023-04-22T00:00:40.277Z,249.08
2023-04-22T00:01:40.240Z,249.30
2023-04-22T00:02:40.349Z,249.09
2023-04-22T00:03:40.332Z,248.85
2023-04-22T00:04:40.382Z,248.93
2023-04-22T00:05:40.218Z,249.26
2023-04-22T00:06:40.197Z,249.50
2023-04-22T00:07:40.171Z,249.25
2023-04-22T00:08:40.202Z,248.93
2023-04-22T00:09:40.487Z,249.97
2023-04-22T00:10:40.215Z,249.74
2023-04-22T00:11:40.163Z,249.29
2023-04-22T00:12:40.181Z,249.22
2023-04-22T00:13:40.200Z,249.42
2023-04-22T00:14:40.175Z,248.80
2023-04-22T00:15:40.256Z,249.34
2023-04-22T00:16:40.330Z,248.19
2023-04-22T00:17:40.241Z,247.83
2023-04-22T00:18:40.182Z,248.24
2023-04-22T00:19:40.519Z,247.77
2023-04-22T00:20:40.222Z,247.22
2023-04-22T00:21:40.186Z,246.86
2023-04-22T00:22:40.191Z,247.02
2023-04-22T00:23:40.193Z,245.93
2023-04-22T00:24:40.201Z,245.74
2023-04-22T00:25:40.190Z,245.77
2023-04-22T00:26:40.178Z,244.90
2023-04-22T00:27:40.194Z,245.59
2023-04-22T00:28:40.164Z,244.99
2023-04-22T00:29:40.572Z,244.81
2023-04-22T00:30:40.248Z,244.94
2023-04-22T00:31:40.217Z,244.16
2023-04-22T00:32:40.245Z,244.37
2023-04-22T00:33:40.193Z,243.38
2023-04-22T00:34:40.207Z,243.74
2023-04-22T00:35:40.208Z,243.68
2023-04-22T00:36:40.215Z,243.28
2023-04-22T00:37:40.211Z,243.25
2023-04-22T00:38:40.225Z,243.00
2023-04-22T00:39:40.412Z,242.83
2023-04-22T00:40:40.237Z,242.53
2023-04-22T00:41:40.244Z,242.55
2023-04-22T00:42:40.218Z,242.06
2023-04-22T00:43:40.226Z,241.35
2023-04-22T00:44:40.226Z,241.43
2023-04-22T00:45:40.233Z,241.81
2023-04-22T00:46:40.270Z,241.88
2023-04-22T00:47:40.299Z,241.72
2023-04-22T00:48:40.251Z,241.76
2023-04-22T00:49:40.395Z,241.78
2023-04-22T00:50:40.259Z,241.95
2023-04-22T00:51:40.241Z,241.82
2023-04-22T00:52:40.245Z,242.21
2023-04-22T00:53:40.257Z,241.58
2023-04-22T00:54:40.260Z,241.89
2023-04-22T00:55:40.270Z,242.04
2023-04-22T00:56:40.238Z,241.82
2023-04-22T00:57:40.245Z,241.96
2023-04-22T00:58:40.248Z,241.71
2023-04-22T00:59:40.588Z,242.11
2023-04-22T01:00:40.371Z,242.21
2023-04-22T01:01:40.284Z,242.16
2023-04-22T01:02:40.395Z,242.51
2023-04-22T01:03:40.339Z,242.56
2023-04-22T01:04:40.260Z,242.09
2023-04-22T01:05:40.265Z,242.83
2023-04-22T01:06:40.262Z,242.05
2023-04-22T01:07:40.280Z,242.22
2023-04-22T01:08:40.255Z,242.22
2023-04-22T01:09:40.633Z,242.74
2023-04-22T01:10:40.268Z,242.09
2023-04-22T01:11:40.249Z,242.39
2023-04-22T01:12:40.267Z,242.59
2023-04-22T01:13:40.245Z,242.63
2023-04-22T01:14:40.273Z,242.75
2023-04-22T01:15:40.261Z,242.84
2023-04-22T01:16:40.263Z,243.14
2023-04-22T01:17:40.296Z,243.28
2023-04-22T01:18:40.263Z,242.96
2023-04-22T01:19:40.434Z,243.39
2023-04-22T01:20:40.268Z,243.32
2023-04-22T01:21:40.234Z,242.83
2023-04-22T01:22:40.237Z,243.30
2023-04-22T01:23:40.235Z,243.00
2023-04-22T01:24:40.244Z,243.36
2023-04-22T01:25:40.259Z,243.47
2023-04-22T01:26:40.228Z,243.11
2023-04-22T01:27:40.240Z,243.58
2023-04-22T01:28:40.243Z,243.22
2023-04-22T01:29:40.580Z,243.67
2023-04-22T01:30:40.273Z,243.61
2023-04-22T01:31:40.284Z,243.79
2023-04-22T01:32:40.271Z,242.99
2023-04-22T01:33:40.234Z,243.48
2023-04-22T01:34:40.212Z,243.14
2023-04-22T01:35:40.269Z,243.63
2023-04-22T01:36:40.222Z,243.18
2023-04-22T01:37:40.216Z,243.74
2023-04-22T01:38:40.219Z,243.82
2023-04-22T01:39:40.454Z,244.07
2023-04-22T01:40:40.215Z,243.75
2023-04-22T01:41:40.196Z,243.61
2023-04-22T01:42:40.190Z,243.69
2023-04-22T01:43:40.255Z,243.07
2023-04-22T01:44:40.185Z,243.59
2023-04-22T01:45:40.202Z,243.24
2023-04-22T01:46:40.189Z,243.85
2023-04-22T01:47:40.243Z,244.18
2023-04-22T01:48:40.189Z,244.53
2023-04-22T01:49:40.447Z,243.52
2023-04-22T01:50:40.194Z,243.96
2023-04-22T01:51:40.200Z,244.24
2023-04-22T01:52:40.205Z,244.20
2023-04-22T01:53:40.203Z,244.39
2023-04-22T01:54:40.197Z,244.26
2023-04-22T01:55:40.202Z,243.96
2023-04-22T01:56:40.240Z,244.17
2023-04-22T01:57:40.207Z,244.14
2023-04-22T01:58:40.196Z,244.04
2023-04-22T01:59:40.532Z,243.96
2023-04-22T02:00:40.207Z,244.94
2023-04-22T02:01:40.295Z,244.60
2023-04-22T02:02:40.294Z,244.49
2023-04-22T02:03:40.266Z,243.90
2023-04-22T02:04:40.220Z,244.58
2023-04-22T02:05:40.197Z,244.76
2023-04-22T02:06:40.197Z,244.12
2023-04-22T02:07:40.204Z,244.87
2023-04-22T02:08:40.197Z,244.27
2023-04-22T02:09:40.460Z,245.18
2023-04-22T02:10:40.168Z,244.64
2023-04-22T02:11:40.174Z,244.39
2023-04-22T02:12:40.154Z,244.61
2023-04-22T02:13:40.154Z,244.64
2023-04-22T02:14:40.160Z,243.90
2023-04-22T02:15:40.234Z,244.37
2023-04-22T02:16:40.155Z,244.71
2023-04-22T02:17:40.148Z,243.85
2023-04-22T02:18:40.152Z,244.12
2023-04-22T02:19:40.384Z,244.74
2023-04-22T02:20:40.142Z,244.76
2023-04-22T02:21:40.134Z,244.83
2023-04-22T02:22:40.139Z,244.77
2023-04-22T02:23:40.142Z,245.29
2023-04-22T02:24:40.140Z,245.59
2023-04-22T02:25:40.137Z,244.87
2023-04-22T02:26:40.141Z,245.00
2023-04-22T02:27:40.121Z,244.75
2023-04-22T02:28:40.118Z,245.34
2023-04-22T02:29:40.409Z,244.85
2023-04-22T02:30:40.106Z,245.02
2023-04-22T02:31:40.159Z,244.60
2023-04-22T02:32:40.219Z,244.75
2023-04-22T02:33:40.106Z,244.81
2023-04-22T02:34:40.086Z,244.80
2023-04-22T02:35:40.090Z,245.13
2023-04-22T02:36:40.084Z,244.13
2023-04-22T02:37:40.080Z,242.67
2023-04-22T02:38:40.085Z,241.58
2023-04-22T02:39:40.350Z,240.92
2023-04-22T02:40:40.110Z,238.20
2023-04-22T02:41:40.074Z,234.14
2023-04-22T02:42:40.076Z,229.63
2023-04-22T02:43:40.125Z,226.27
2023-04-22T02:44:40.098Z,221.63
2023-04-22T02:45:40.081Z,214.56
2023-04-22T02:46:40.180Z,209.27
2023-04-22T02:47:40.105Z,206.81
2023-04-22T02:48:40.070Z,202.97
2023-04-22T02:49:40.451Z,198.63
2023-04-22T02:50:40.097Z,194.72
2023-04-22T02:51:40.076Z,192.88
2023-04-22T02:52:40.085Z,189.38
2023-04-22T02:53:40.083Z,186.59
2023-04-22T02:54:40.079Z,183.65
2023-04-22T02:55:40.096Z,181.81
2023-04-22T02:56:40.076Z,178.16
2023-04-22T02:57:40.108Z,174.24
2023-04-22T02:58:40.078Z,170.26
2023-04-22T02:59:40.350Z,168.01
2023-04-22T03:00:40.147Z,166.83
2023-04-22T03:01:40.099Z,163.81
2023-04-22T03:02:40.270Z,160.30
2023-04-22T03:03:40.216Z,157.20
2023-04-22T03:04:40.080Z,153.46
2023-04-22T03:05:40.098Z,152.52
2023-04-22T03:06:40.088Z,150.44
2023-04-22T03:07:40.113Z,148.20
2023-04-22T03:08:40.077Z,147.21
2023-04-22T03:09:40.466Z,144.70
2023-04-22T03:10:40.096Z,141.92
2023-04-22T03:11:40.079Z,139.28
2023-04-22T03:12:40.113Z,136.88
2023-04-22T03:13:40.102Z,136.53
2023-04-22T03:14:40.095Z,135.56
2023-04-22T03:15:40.096Z,133.47
2023-04-22T03:16:40.194Z,132.14
2023-04-22T03:17:40.155Z,130.71
2023-04-22T03:18:40.134Z,130.45
2023-04-22T03:19:40.450Z,128.38
2023-04-22T03:20:40.265Z,125.75
2023-04-22T03:21:40.330Z,124.53
2023-04-22T03:22:40.379Z,124.01
2023-04-22T03:23:40.465Z,122.68
2023-04-22T03:24:40.512Z,121.53
2023-04-22T03:25:40.611Z,119.47
2023-04-22T03:26:40.669Z,118.53
2023-04-22T03:27:40.712Z,117.40
2023-04-22T03:28:40.791Z,114.89
2023-04-22T03:29:41.173Z,114.21
2023-04-22T03:30:40.933Z,114.11
2023-04-22T03:31:41.000Z,113.34
2023-04-22T03:32:41.095Z,111.63
2023-04-22T03:33:41.126Z,109.91
2023-04-22T03:34:41.131Z,109.92
2023-04-22T03:35:41.138Z,108.58
2023-04-22T03:36:41.119Z,107.61
2023-04-22T03:37:41.164Z,106.88
2023-04-22T03:38:41.138Z,106.89
2023-04-22T03:39:41.436Z,107.42
2023-04-22T03:40:41.147Z,107.14
2023-04-22T03:41:41.172Z,106.96
2023-04-22T03:42:41.183Z,106.78
2023-04-22T03:43:41.193Z,106.96
2023-04-22T03:44:41.279Z,105.16
2023-04-22T03:45:41.356Z,103.81
2023-04-22T03:46:41.416Z,104.16
2023-04-22T03:47:41.550Z,103.12
2023-04-22T03:48:41.573Z,102.57
2023-04-22T03:49:41.827Z,102.52
2023-04-22T03:50:41.742Z,100.18
2023-04-22T03:51:41.802Z,100.65
2023-04-22T03:52:41.888Z,100.03
2023-04-22T03:53:41.947Z,100.36
2023-04-22T03:54:42.009Z,99.77
2023-04-22T03:55:42.087Z,99.21
2023-04-22T03:56:42.204Z,99.22
2023-04-22T03:57:42.231Z,96.92
2023-04-22T03:58:42.310Z,96.57
2023-04-22T03:59:42.586Z,94.81
2023-04-22T04:00:42.464Z,95.22
2023-04-22T04:01:42.527Z,95.47
2023-04-22T04:02:42.719Z,95.31
2023-04-22T04:03:42.857Z,94.06
2023-04-22T04:04:43.094Z,93.63
2023-04-22T04:05:42.977Z,93.39
2023-04-22T04:06:42.949Z,92.71
2023-04-22T04:07:43.025Z,93.85
2023-04-22T04:08:43.096Z,96.80
2023-04-22T04:09:43.272Z,96.24
2023-04-22T04:10:43.289Z,96.11
2023-04-22T04:11:43.350Z,95.84
2023-04-22T04:12:43.437Z,95.67
2023-04-22T04:13:43.522Z,95.23
2023-04-22T04:14:43.575Z,95.51
2023-04-22T04:15:43.733Z,96.46
2023-04-22T04:16:43.679Z,97.25
2023-04-22T04:17:43.794Z,95.37
2023-04-22T04:18:43.765Z,94.37
2023-04-22T04:19:43.815Z,95.28
2023-04-22T04:20:43.889Z,95.52
2023-04-22T04:21:43.932Z,95.99
2023-04-22T04:22:44.004Z,95.53
2023-04-22T04:23:44.083Z,95.49
2023-04-22T04:24:44.114Z,95.07
2023-04-22T04:25:44.170Z,96.25
2023-04-22T04:26:44.205Z,98.12
2023-04-22T04:27:44.292Z,94.84
2023-04-22T04:28:44.351Z,96.04
2023-04-22T04:29:44.411Z,96.86
2023-04-22T04:30:44.486Z,95.26
2023-04-22T04:31:44.619Z,95.32
2023-04-22T04:32:44.611Z,95.33
2023-04-22T04:33:44.553Z,95.16
2023-04-22T04:34:44.595Z,95.26
2023-04-22T04:35:44.590Z,93.77
2023-04-22T04:36:44.574Z,94.00
2023-04-22T04:37:44.599Z,93.55
2023-04-22T04:38:44.610Z,94.79
2023-04-22T04:39:44.613Z,93.16
2023-04-22T04:40:44.631Z,94.27
2023-04-22T04:41:44.670Z,94.56
2023-04-22T04:42:44.635Z,92.96
2023-04-22T04:43:44.672Z,92.89
2023-04-22T04:44:44.734Z,91.54
2023-04-22T04:45:47.523Z,89.12
2023-04-22T04:46:44.807Z,89.30
2023-04-22T04:47:44.856Z,90.79
2023-04-22T04:48:44.831Z,88.82
2023-04-22T04:49:44.826Z,88.51
2023-04-22T04:50:44.854Z,87.68
2023-04-22T04:51:44.866Z,88.88
2023-04-22T04:52:44.881Z,89.30
2023-04-22T04:53:44.879Z,89.52
2023-04-22T04:54:44.892Z,87.79
2023-04-22T04:55:44.917Z,87.19
2023-04-22T04:56:44.930Z,86.19
2023-04-22T04:57:45.025Z,86.90
2023-04-22T04:58:44.978Z,86.13
2023-04-22T04:59:44.956Z,87.11
2023-04-22T05:00:44.981Z,86.84
2023-04-22T05:01:45.032Z,87.55
2023-04-22T05:02:45.061Z,89.59
2023-04-22T05:03:45.121Z,90.94
2023-04-22T05:04:45.208Z,92.46
2023-04-22T05:05:45.055Z,92.19
2023-04-22T05:06:45.038Z,92.68
2023-04-22T05:07:45.079Z,94.15
2023-04-22T05:08:45.081Z,95.13
2023-04-22T05:09:45.113Z,95.46
2023-04-22T05:10:45.117Z,97.03
2023-04-22T05:11:45.099Z,96.63
2023-04-22T05:12:45.113Z,96.84
2023-04-22T05:13:45.145Z,96.25
2023-04-22T05:14:45.128Z,93.95
2023-04-22T05:15:45.159Z,93.76
2023-04-22T05:16:45.198Z,93.14
2023-04-22T05:17:45.228Z,91.16
2023-04-22T05:18:45.170Z,91.77
2023-04-22T05:19:45.181Z,91.35
2023-04-22T05:20:45.189Z,93.53
2023-04-22T05:21:45.199Z,93.90
2023-04-22T05:22:45.203Z,92.15
2023-04-22T05:23:45.219Z,92.16
2023-04-22T05:24:45.226Z,92.35
2023-04-22T05:25:45.253Z,93.01
2023-04-22T05:26:45.260Z,92.58
2023-04-22T05:27:45.273Z,92.59
2023-04-22T05:28:45.292Z,94.23
2023-04-22T05:29:45.303Z,90.55
2023-04-22T05:30:46.045Z,90.15
2023-04-22T05:31:45.347Z,89.14
2023-04-22T05:32:45.361Z,91.33
2023-04-22T05:33:45.322Z,90.03
2023-04-22T05:34:45.376Z,89.00
2023-04-22T05:35:45.366Z,89.87
2023-04-22T05:36:45.437Z,91.29
2023-04-22T05:37:45.541Z,88.37
2023-04-22T05:38:45.604Z,84.07
2023-04-22T05:39:45.716Z,84.01
2023-04-22T05:40:45.807Z,81.02
2023-04-22T05:41:46.939Z,79.06
2023-04-22T05:42:45.971Z,77.58
2023-04-22T05:43:46.044Z,77.65
2023-04-22T05:44:46.124Z,78.19
2023-04-22T05:45:46.237Z,75.71
2023-04-22T05:46:46.277Z,74.62
2023-04-22T05:47:46.355Z,75.17
2023-04-22T05:48:46.427Z,76.68
2023-04-22T05:49:46.491Z,74.41
2023-04-22T05:50:47.072Z,73.66
2023-04-22T05:51:46.646Z,74.45
2023-04-22T05:52:46.758Z,73.90
2023-04-22T05:53:46.795Z,71.97
2023-04-22T05:54:46.891Z,71.61
2023-04-22T05:55:46.955Z,71.45
2023-04-22T05:56:47.049Z,71.90
2023-04-22T05:57:47.144Z,72.72
2023-04-22T05:58:47.201Z,69.27
2023-04-22T05:59:47.295Z,66.99
2023-04-22T06:00:47.380Z,67.01
2023-04-22T06:01:47.417Z,64.45
2023-04-22T06:02:47.609Z,63.80
2023-04-22T06:03:48.284Z,63.46
2023-04-22T06:04:47.765Z,63.49
2023-04-22T06:05:47.715Z,62.10
2023-04-22T06:06:47.678Z,61.28
2023-04-22T06:07:47.745Z,58.34
2023-04-22T06:08:47.814Z,58.12
2023-04-22T06:09:47.880Z,56.44
2023-04-22T06:10:47.975Z,58.18
2023-04-22T06:11:48.008Z,54.67
2023-04-22T06:12:48.109Z,55.26
2023-04-22T06:13:48.195Z,56.25
2023-04-22T06:14:48.300Z,56.90
2023-04-22T06:15:48.349Z,54.92
2023-04-22T06:16:48.406Z,53.02
2023-04-22T06:17:48.511Z,55.68
2023-04-22T06:18:48.475Z,55.52
2023-04-22T06:19:48.469Z,53.22
2023-04-22T06:20:48.587Z,53.09
2023-04-22T06:21:48.523Z,53.87
2023-04-22T06:22:48.517Z,50.81
2023-04-22T06:23:49.065Z,50.30
2023-04-22T06:24:48.529Z,49.88
2023-04-22T06:25:48.575Z,47.17
2023-04-22T06:26:48.568Z,48.37
2023-04-22T06:27:48.639Z,46.71
2023-04-22T06:28:48.721Z,46.54
2023-04-22T06:29:48.797Z,48.21
2023-04-22T06:30:48.875Z,48.16
2023-04-22T06:31:49.052Z,47.47
2023-04-22T06:32:49.041Z,47.18
2023-04-22T06:33:49.121Z,46.25
2023-04-22T06:34:49.191Z,45.85
2023-04-22T06:35:49.254Z,43.39
2023-04-22T06:36:49.351Z,41.34
2023-04-22T06:37:49.397Z,42.82
2023-04-22T06:38:49.464Z,40.50
2023-04-22T06:39:49.551Z,39.32
2023-04-22T06:40:49.625Z,38.08
2023-04-22T06:41:49.694Z,38.58
2023-04-22T06:42:49.751Z,37.63
2023-04-22T06:43:49.862Z,38.56
2023-04-22T06:44:49.911Z,36.00
2023-04-22T06:45:49.969Z,35.91
2023-04-22T06:46:50.018Z,37.89
2023-04-22T06:47:50.172Z,37.47
2023-04-22T06:48:50.149Z,35.76
2023-04-22T06:49:50.182Z,34.94
2023-04-22T06:50:50.259Z,31.74
2023-04-22T06:51:50.311Z,33.88
2023-04-22T06:52:50.336Z,32.72
2023-04-22T06:53:50.384Z,30.03
2023-04-22T06:54:50.436Z,30.08
2023-04-22T06:55:50.495Z,28.34
2023-04-22T06:56:50.569Z,28.43
2023-04-22T06:57:50.590Z,25.03
2023-04-22T06:58:50.615Z,25.00
2023-04-22T06:59:50.659Z,25.37
2023-04-22T07:00:50.721Z,26.67
2023-04-22T07:01:50.772Z,27.79
2023-04-22T07:02:50.871Z,29.06
2023-04-22T07:03:50.940Z,26.36
2023-04-22T07:04:50.836Z,26.69
2023-04-22T07:05:50.864Z,25.66
2023-04-22T07:06:50.878Z,25.44
2023-04-22T07:07:50.924Z,26.41
2023-04-22T07:08:50.927Z,26.42
2023-04-22T07:09:50.897Z,26.42
2023-04-22T07:10:50.976Z,25.47
2023-04-22T07:11:50.912Z,26.24
2023-04-22T07:12:50.900Z,28.36
2023-04-22T07:13:50.916Z,27.25
2023-04-22T07:14:50.926Z,26.96
2023-04-22T07:15:50.932Z,25.73
2023-04-22T07:16:50.963Z,25.00
2023-04-22T07:17:50.931Z,25.11
2023-04-22T07:18:50.921Z,24.48
2023-04-22T07:19:50.916Z,25.20
2023-04-22T07:20:50.951Z,25.27
2023-04-22T07:21:50.904Z,25.57
2023-04-22T07:22:50.909Z,24.54
2023-04-22T07:23:50.915Z,25.24
2023-04-22T07:24:50.921Z,25.90
2023-04-22T07:25:50.934Z,25.16
2023-04-22T07:26:50.904Z,25.67
2023-04-22T07:27:50.902Z,25.61
2023-04-22T07:28:50.882Z,25.63
2023-04-22T07:29:50.875Z,25.00
2023-04-22T07:30:50.912Z,26.00
2023-04-22T07:31:50.914Z,26.85
2023-04-22T07:32:50.894Z,25.00
2023-04-22T07:33:50.882Z,25.00
2023-04-22T07:34:50.901Z,25.72
2023-04-22T07:35:50.854Z,25.00
2023-04-22T07:36:50.861Z,25.24
2023-04-22T07:37:50.851Z,26.23
2023-04-22T07:38:50.839Z,27.16
2023-04-22T07:39:50.810Z,28.99
2023-04-22T07:40:50.822Z,25.08
2023-04-22T07:41:50.821Z,25.18
2023-04-22T07:42:50.804Z,26.73
2023-04-22T07:43:50.806Z,27.04
2023-04-22T07:44:50.774Z,27.52
2023-04-22T07:45:50.855Z,26.11
2023-04-22T07:46:50.797Z,26.25
2023-04-22T07:47:50.836Z,25.72
2023-04-22T07:48:50.773Z,25.13
2023-04-22T07:49:50.792Z,25.00
2023-04-22T07:50:50.759Z,26.33
2023-04-22T07:51:50.720Z,25.92
2023-04-22T07:52:50.754Z,25.00
2023-04-22T07:53:50.727Z,26.17
2023-04-22T07:54:50.711Z,25.86
2023-04-22T07:55:50.709Z,25.40
2023-04-22T07:56:50.711Z,26.20
2023-04-22T07:57:50.692Z,28.13
2023-04-22T07:58:50.696Z,24.75
2023-04-22T07:59:50.699Z,27.17
2023-04-22T08:00:50.728Z,27.56
2023-04-22T08:01:50.713Z,28.48
2023-04-22T08:02:50.851Z,27.38
2023-04-22T08:03:51.062Z,28.91
2023-04-22T08:04:50.859Z,34.28
2023-04-22T08:05:50.893Z,40.86
2023-04-22T08:06:50.966Z,45.35
2023-04-22T08:07:50.994Z,48.01
2023-04-22T08:08:51.056Z,51.52
2023-04-22T08:09:51.098Z,57.85
2023-04-22T08:10:51.186Z,64.38
2023-04-22T08:11:51.201Z,64.90
2023-04-22T08:12:51.244Z,71.29
2023-04-22T08:13:51.283Z,73.70
2023-04-22T08:14:51.317Z,80.25
2023-04-22T08:15:51.399Z,84.99
2023-04-22T08:16:51.393Z,90.92
2023-04-22T08:17:51.518Z,89.76
2023-04-22T08:18:51.478Z,93.62
2023-04-22T08:19:51.496Z,95.59
2023-04-22T08:20:51.529Z,98.66
2023-04-22T08:21:51.567Z,100.03
2023-04-22T08:22:51.593Z,105.65
2023-04-22T08:23:51.643Z,109.85
2023-04-22T08:24:51.687Z,112.25
2023-04-22T08:25:51.695Z,115.76
2023-04-22T08:26:51.773Z,115.52
2023-04-22T08:27:51.739Z,117.07
2023-04-22T08:28:51.777Z,117.08
2023-04-22T08:29:51.794Z,121.88
2023-04-22T08:30:51.832Z,124.49
2023-04-22T08:31:51.842Z,127.23
2023-04-22T08:32:51.895Z,127.72
2023-04-22T08:33:51.886Z,128.27
2023-04-22T08:34:54.083Z,128.24
2023-04-22T08:35:52.872Z,124.60
2023-04-22T08:36:51.845Z,123.52
2023-04-22T08:37:51.831Z,122.58
2023-04-22T08:38:51.820Z,123.08
2023-04-22T08:39:51.784Z,122.41
2023-04-22T08:40:51.777Z,121.40
2023-04-22T08:41:51.847Z,119.88
2023-04-22T08:42:51.743Z,120.59
2023-04-22T08:43:51.705Z,120.65
2023-04-22T08:44:51.725Z,121.24
2023-04-22T08:45:51.707Z,122.11
2023-04-22T08:46:51.904Z,122.81
2023-04-22T08:47:51.693Z,120.73
2023-04-22T08:48:51.619Z,121.29
2023-04-22T08:49:51.645Z,122.65
2023-04-22T08:50:51.588Z,124.99
2023-04-22T08:51:51.556Z,129.45
2023-04-22T08:52:51.547Z,131.41
2023-04-22T08:53:51.521Z,133.65
2023-04-22T08:54:51.509Z,136.60
2023-04-22T08:55:51.501Z,138.12
2023-04-22T08:56:51.480Z,140.75
2023-04-22T08:57:51.442Z,143.46
2023-04-22T08:58:51.439Z,144.80
2023-04-22T08:59:51.399Z,148.29
2023-04-22T09:00:51.409Z,150.92
2023-04-22T09:01:51.421Z,153.82
2023-04-22T09:02:51.482Z,154.74
2023-04-22T09:03:51.398Z,156.88
2023-04-22T09:04:51.320Z,159.96
2023-04-22T09:05:51.298Z,162.30
2023-04-22T09:06:51.303Z,165.23
2023-04-22T09:07:51.271Z,167.27
2023-04-22T09:08:51.255Z,169.40
2023-04-22T09:09:51.212Z,171.21
2023-04-22T09:10:51.221Z,173.15
2023-04-22T09:11:51.169Z,175.15
2023-04-22T09:12:51.175Z,177.90
2023-04-22T09:13:51.170Z,178.89
2023-04-22T09:14:51.110Z,181.14
2023-04-22T09:15:51.103Z,181.94
2023-04-22T09:16:51.215Z,184.00
2023-04-22T09:17:51.132Z,186.82
2023-04-22T09:18:51.047Z,187.84
2023-04-22T09:19:51.003Z,189.21
2023-04-22T09:20:51.026Z,191.21
2023-04-22T09:21:53.689Z,193.27
2023-04-22T09:22:50.948Z,194.33
2023-04-22T09:23:50.981Z,196.15
2023-04-22T09:24:50.925Z,197.69
2023-04-22T09:25:50.908Z,198.53
2023-04-22T09:26:50.890Z,201.10
2023-04-22T09:27:50.844Z,202.47
2023-04-22T09:28:50.832Z,202.85
2023-04-22T09:29:50.796Z,204.05
2023-04-22T09:30:50.796Z,205.99
2023-04-22T09:31:50.838Z,206.88
2023-04-22T09:32:50.759Z,208.44
2023-04-22T09:33:50.719Z,209.07
2023-04-22T09:34:50.683Z,209.56
2023-04-22T09:35:50.696Z,211.11
2023-04-22T09:36:50.631Z,212.36
2023-04-22T09:37:50.626Z,213.26
2023-04-22T09:38:50.610Z,214.72
2023-04-22T09:39:50.581Z,215.65
2023-04-22T09:40:50.560Z,216.20
2023-04-22T09:41:50.535Z,217.02
2023-04-22T09:42:50.527Z,217.43
2023-04-22T09:43:50.495Z,218.08
2023-04-22T09:44:50.482Z,218.54
2023-04-22T09:45:50.484Z,219.24
2023-04-22T09:46:50.439Z,219.79
2023-04-22T09:47:50.446Z,220.35
2023-04-22T09:48:50.403Z,222.55
2023-04-22T09:49:50.370Z,223.05
2023-04-22T09:50:50.374Z,223.81
2023-04-22T09:51:50.343Z,223.85
2023-04-22T09:52:50.316Z,224.93
2023-04-22T09:53:50.318Z,224.96
2023-04-22T09:54:50.363Z,225.98
2023-04-22T09:55:50.241Z,226.38
2023-04-22T09:56:50.208Z,226.77
2023-04-22T09:57:50.187Z,227.59
2023-04-22T09:58:50.169Z,228.18
2023-04-22T09:59:50.127Z,228.96
2023-04-22T10:00:50.166Z,229.04
2023-04-22T10:01:50.083Z,229.31
2023-04-22T10:02:50.118Z,229.71
2023-04-22T10:03:50.051Z,229.97
2023-04-22T10:04:50.027Z,230.65
2023-04-22T10:05:50.017Z,230.90
2023-04-22T10:06:49.983Z,232.13
2023-04-22T10:07:50.002Z,233.22
2023-04-22T10:08:49.925Z,232.73
2023-04-22T10:09:49.909Z,234.14
2023-04-22T10:10:49.896Z,234.18
2023-04-22T10:11:49.857Z,234.30
2023-04-22T10:12:49.844Z,234.25
2023-04-22T10:13:49.805Z,234.94
2023-04-22T10:14:49.767Z,235.22
2023-04-22T10:15:49.785Z,235.71
2023-04-22T10:16:49.770Z,236.23
2023-04-22T10:17:49.775Z,236.27
2023-04-22T10:18:49.692Z,235.94
2023-04-22T10:19:49.673Z,235.34
2023-04-22T10:20:49.650Z,237.36
2023-04-22T10:21:49.645Z,236.94
2023-04-22T10:22:49.586Z,235.83
2023-04-22T10:23:49.571Z,237.29
2023-04-22T10:24:49.542Z,237.85
2023-04-22T10:25:49.517Z,238.55
2023-04-22T10:26:49.532Z,237.53
2023-04-22T10:27:49.452Z,238.22
2023-04-22T10:28:49.443Z,238.94
2023-04-22T10:29:49.439Z,238.64
2023-04-22T10:30:49.424Z,239.40
2023-04-22T10:31:49.444Z,239.42
2023-04-22T10:32:49.459Z,239.64
2023-04-22T10:33:49.313Z,239.06
2023-04-22T10:34:49.487Z,238.97
2023-04-22T10:35:49.400Z,239.85
2023-04-22T10:36:50.231Z,239.37
2023-04-22T10:37:49.241Z,238.86
2023-04-22T10:38:49.212Z,241.41
2023-04-22T10:39:49.226Z,240.20
2023-04-22T10:40:49.167Z,240.01
2023-04-22T10:41:49.192Z,240.08
2023-04-22T10:42:49.126Z,240.16
2023-04-22T10:43:49.129Z,240.26
2023-04-22T10:44:49.105Z,240.24
2023-04-22T10:45:49.144Z,241.17
2023-04-22T10:46:49.126Z,241.14
2023-04-22T10:47:49.125Z,240.74
2023-04-22T10:48:49.037Z,241.78
2023-04-22T10:49:49.244Z,241.14
2023-04-22T10:50:48.998Z,241.98
2023-04-22T10:51:49.014Z,242.00
2023-04-22T10:52:48.962Z,242.27
2023-04-22T10:53:48.945Z,242.20
2023-04-22T10:54:48.921Z,243.10
2023-04-22T10:55:48.909Z,242.64
2023-04-22T10:56:57.463Z,242.10
2023-04-22T10:57:49.876Z,242.18
2023-04-22T10:58:48.853Z,242.37
2023-04-22T10:59:50.369Z,242.36
2023-04-22T11:00:53.878Z,242.74
2023-04-22T11:01:49.865Z,242.24
2023-04-22T11:02:48.868Z,242.40
2023-04-22T11:03:48.837Z,242.64
2023-04-22T11:04:48.738Z,242.99
2023-04-22T11:05:48.719Z,243.27
2023-04-22T11:06:48.702Z,244.01
2023-04-22T11:07:48.694Z,243.35
2023-04-22T11:08:48.656Z,243.92
2023-04-22T11:09:48.640Z,243.96
2023-04-22T11:10:48.631Z,244.96
2023-04-22T11:11:48.653Z,244.34
2023-04-22T11:12:48.608Z,244.58
2023-04-22T11:13:48.582Z,244.48
2023-04-22T11:14:48.568Z,244.84
2023-04-22T11:15:48.632Z,244.49
2023-04-22T11:16:48.569Z,244.96
2023-04-22T11:17:48.545Z,245.08
2023-04-22T11:18:48.515Z,244.98
2023-04-22T11:19:48.481Z,245.74
2023-04-22T11:20:48.514Z,245.38
2023-04-22T11:21:51.079Z,244.37
2023-04-22T11:22:48.447Z,245.07
2023-04-22T11:23:48.416Z,246.11
2023-04-22T11:24:48.398Z,246.18
2023-04-22T11:25:48.383Z,245.04
2023-04-22T11:26:48.373Z,246.36
2023-04-22T11:27:48.370Z,245.67
2023-04-22T11:28:48.330Z,246.10
2023-04-22T11:29:48.313Z,245.91
2023-04-22T11:30:48.290Z,246.92
2023-04-22T11:31:48.328Z,249.60
2023-04-22T11:32:48.271Z,245.20
2023-04-22T11:33:50.238Z,248.92
2023-04-22T11:34:48.211Z,248.25
2023-04-22T11:35:48.209Z,247.64
2023-04-22T11:36:48.203Z,247.32
2023-04-22T11:37:48.166Z,249.01
2023-04-22T11:38:48.161Z,248.94
2023-04-22T11:40:10.093Z,248.82
2023-04-22T11:40:49.410Z,249.04
2023-04-22T11:41:48.110Z,249.09
2023-04-22T11:42:48.098Z,249.53
2023-04-22T11:43:48.109Z,249.28
2023-04-22T11:44:48.044Z,251.77
2023-04-22T11:45:48.035Z,249.17
2023-04-22T11:46:48.039Z,246.84
2023-04-22T11:47:48.020Z,248.70
2023-04-22T11:48:47.958Z,248.99
2023-04-22T11:49:47.978Z,248.48
2023-04-22T11:50:47.939Z,248.42
2023-04-22T11:51:47.965Z,248.33
2023-04-22T11:52:47.927Z,247.77
2023-04-22T11:53:47.874Z,247.65
2023-04-22T11:54:47.885Z,248.65
2023-04-22T11:55:47.869Z,248.62
2023-04-22T11:56:47.829Z,247.77
2023-04-22T11:57:47.813Z,248.20
2023-04-22T11:58:47.786Z,248.99
2023-04-22T11:59:47.781Z,247.82
2023-04-22T12:00:47.792Z,247.55
2023-04-22T12:01:47.838Z,248.44
2023-04-22T12:02:47.904Z,247.61
2023-04-22T12:03:47.897Z,248.09
2023-04-22T12:04:47.879Z,248.13
2023-04-22T12:05:47.808Z,248.62
2023-04-22T12:06:47.826Z,248.58
2023-04-22T12:07:47.840Z,249.77
2023-04-22T12:08:47.864Z,249.12
2023-04-22T12:09:47.870Z,248.72
2023-04-22T12:10:47.879Z,248.92
2023-04-22T12:11:47.943Z,247.55
2023-04-22T12:12:47.912Z,248.64
2023-04-22T12:13:47.960Z,249.49
2023-04-22T12:14:47.957Z,248.27
2023-04-22T12:15:47.960Z,248.64
2023-04-22T12:16:48.013Z,248.77
2023-04-22T12:17:48.034Z,248.25
2023-04-22T12:18:47.997Z,247.83
2023-04-22T12:19:48.045Z,246.52
2023-04-22T12:20:48.027Z,247.61
2023-04-22T12:21:48.091Z,249.32
2023-04-22T12:22:48.057Z,247.22
2023-04-22T12:23:48.091Z,247.28
2023-04-22T12:24:48.116Z,247.94
2023-04-22T12:25:48.130Z,247.84
2023-04-22T12:26:48.133Z,248.08
2023-04-22T12:27:48.189Z,247.97
2023-04-22T12:28:48.183Z,246.36
2023-04-22T12:29:48.195Z,249.42
2023-04-22T12:30:48.242Z,248.24
2023-04-22T12:31:48.236Z,246.97
2023-04-22T12:32:48.245Z,246.90
2023-04-22T12:33:48.311Z,246.69
2023-04-22T12:34:48.305Z,247.16
2023-04-22T12:35:48.329Z,247.53
2023-04-22T12:36:48.367Z,247.80